METAR AND TAF INFORMATION
METAR FOR SBBR
ADDS - METARS form results

(1934 UTC 26 April 2018)
Data provider http://aviationweather.gov/adds/metars/
 
METAR text: SBBR 261900Z 11005KT 070V150 9999 SCT045 27/11 Q1018
Conditions at: SBBR (BRASILIA (CIV/MI, BR) observed 1900 UTC 26 April 2018
Temperature: 27.0°C (81°F)
Dewpoint: 11.0°C (52°F) [RH = 37%]
Pressure (altimeter): 30.06 inches Hg (1018.0 mb)
Winds: from the ESE (110 degrees) at 6 MPH (5 knots; 2.6 m/s)
Visibility: 6 or more miles (10+ km)
Ceiling: at least 12,000 feet AGL
Clouds: scattered clouds at 4500 feet AGL
Weather: no significant weather observed at this time

Forecast for: SBBR (BRASILIA (CIV/MI, BR)
Text: TAF SBBR 261600Z 2618/2718 09005KT 9999 BKN040 FEW045TCU TX26/2618Z TN14/2708Z
Forecast period: 1800 to 1900 UTC 26 April 2018
Forecast type: FROM: standard forecast or significant change
Winds: from the E (90 degrees) at 6 MPH (5 knots; 2.6 m/s)
Visibility: 6 or more miles (10+ km)
Ceiling: 4000 feet AGL
Clouds: broken clouds at 4000 feet AGL
few clouds at 4500 feet AGL
Weather: no significant weather forecast for this period
Forecast for: SBBR (BRASILIA (CIV/MI, BR)
Text: TAF SBBR 261600Z 2618/2718 09005KT 9999 BKN040 FEW045TCU TX26/2618Z TN14/2708Z
Forecast period: 1800 to 1900 UTC 26 April 2018
Forecast type: FROM: standard forecast or significant change
Winds: from the E (90 degrees) at 6 MPH (5 knots; 2.6 m/s)
Visibility: 6 or more miles (10+ km)
Ceiling: 4000 feet AGL
Clouds: broken clouds at 4000 feet AGL
few clouds at 4500 feet AGL
Weather: no significant weather forecast for this period
Forecast for: SBBR (BRASILIA (CIV/MI, BR)
Text: TAF SBBR 261600Z 2618/2718 09005KT 9999 BKN040 FEW045TCU TX26/2618Z TN14/2708Z
Forecast period: 1900 to 2200 UTC 26 April 2018
Forecast type: BECOMING: Conditions expected to become as follows by 2100 UTC 26 April 2018
Winds: from the E (90 degrees) at 6 MPH (5 knots; 2.6 m/s)
Visibility: 6 or more miles (10+ km)
Clouds: few clouds at 4500 feet AGL
Weather: no significant weather forecast for this period
Forecast for: SBBR (BRASILIA (CIV/MI, BR)
Text: TAF SBBR 261600Z 2618/2718 09005KT 9999 BKN040 FEW045TCU TX26/2618Z TN14/2708Z
Forecast period: 1900 to 2200 UTC 26 April 2018
Forecast type: BECOMING: Conditions expected to become as follows by 2100 UTC 26 April 2018
Winds: from the E (90 degrees) at 6 MPH (5 knots; 2.6 m/s)
Visibility: 6 or more miles (10+ km)
Clouds: few clouds at 4500 feet AGL
Weather: no significant weather forecast for this period
Forecast for: SBBR (BRASILIA (CIV/MI, BR)
Text: TAF SBBR 261600Z 2618/2718 09005KT 9999 BKN040 FEW045TCU TX26/2618Z TN14/2708Z
Forecast period: 2200 UTC 26 April 2018 to 1200 UTC 27 April 2018
Forecast type: BECOMING: Conditions expected to become as follows by 0000 UTC 27 April 2018
Winds: from the ESE (120 degrees) at 6 MPH (5 knots; 2.6 m/s)
Visibility: 6 or more miles (10+ km)
Weather: NSW  (no significant weather)
Forecast for: SBBR (BRASILIA (CIV/MI, BR)
Text: TAF SBBR 261600Z 2618/2718 09005KT 9999 BKN040 FEW045TCU TX26/2618Z TN14/2708Z
Forecast period: 2200 UTC 26 April 2018 to 1200 UTC 27 April 2018
Forecast type: BECOMING: Conditions expected to become as follows by 0000 UTC 27 April 2018
Winds: from the ESE (120 degrees) at 6 MPH (5 knots; 2.6 m/s)
Visibility: 6 or more miles (10+ km)
Weather: NSW  (no significant weather)
Forecast for: SBBR (BRASILIA (CIV/MI, BR)
Text: TAF SBBR 261600Z 2618/2718 09005KT 9999 BKN040 FEW045TCU TX26/2618Z TN14/2708Z
Forecast period: 1200 to 1500 UTC 27 April 2018
Forecast type: BECOMING: Conditions expected to become as follows by 1400 UTC 27 April 2018
Winds: from the E (80 degrees) at 8 MPH (7 knots; 3.6 m/s)
Visibility: 6 or more miles (10+ km)
Weather: NSW  (no significant weather)
Forecast for: SBBR (BRASILIA (CIV/MI, BR)
Text: TAF SBBR 261600Z 2618/2718 09005KT 9999 BKN040 FEW045TCU TX26/2618Z TN14/2708Z
Forecast period: 1200 to 1500 UTC 27 April 2018
Forecast type: BECOMING: Conditions expected to become as follows by 1400 UTC 27 April 2018
Winds: from the E (80 degrees) at 8 MPH (7 knots; 3.6 m/s)
Visibility: 6 or more miles (10+ km)
Weather: NSW  (no significant weather)
Forecast for: SBBR (BRASILIA (CIV/MI, BR)
Text: TAF SBBR 261600Z 2618/2718 09005KT 9999 BKN040 FEW045TCU TX26/2618Z TN14/2708Z
Forecast period: 1500 to 1800 UTC 27 April 2018
Forecast type: BECOMING: Conditions expected to become as follows by 1700 UTC 27 April 2018
Winds: from the ENE (60 degrees) at 8 MPH (7 knots; 3.6 m/s)
Visibility: 6 or more miles (10+ km)
Ceiling: 4000 feet AGL
Clouds: broken clouds at 4000 feet AGL
Weather: NSW  (no significant weather)
Forecast for: SBBR (BRASILIA (CIV/MI, BR)
Text: TAF SBBR 261600Z 2618/2718 09005KT 9999 BKN040 FEW045TCU TX26/2618Z TN14/2708Z
Forecast period: 1500 to 1800 UTC 27 April 2018
Forecast type: BECOMING: Conditions expected to become as follows by 1700 UTC 27 April 2018
Winds: from the ENE (60 degrees) at 8 MPH (7 knots; 3.6 m/s)
Visibility: 6 or more miles (10+ km)
Ceiling: 4000 feet AGL
Clouds: broken clouds at 4000 feet AGL
Weather: NSW  (no significant weather)

 AIRPORT MAP

 RUNWAY INFORMATION
Runway 11L Runway length 10499 ft Runway width 148 ft
Runway elevation 3448 ft Runway displaced threshold 0 ft Runway heading 87
Runway 29R Runway length 10499 ft Runway width 148 ft
Runway elevation 3479 ft Runway displaced threshold 0 ft Runway heading 267
Runway 11R Runway length 10827 ft Runway width 148 ft
Runway elevation 3497 ft Runway displaced threshold 0 ft Runway heading 87
Runway 29L Runway length 10827 ft Runway width 148 ft
Runway elevation 3417 ft Runway displaced threshold 0 ft Runway heading 267

 AIRPORT FREQUENCIES
Type APP Name BRASILIA A Frequency 119.2 MHZ
Type ATIS Name BRASILIA A Frequency 127.8 MHZ
Type CLD Name BRASILIA C Frequency 121.8 MHZ
Type GND Name GND Frequency 121.8 MHZ
Type OPS Name BRASILIA O Frequency 122.5 MHZ
Type PMSV Name BRASILIA M Frequency 132.6 MHZ
Type TWR Name BRASILIA T Frequency 118.45 MHZ

 AIRPORT NEAR NAVIGATION AIDS
Type VOR-DME Name Brasilia Frequency 115900 KHZ
Type NDB Name Brasilia Frequency 340 KHZ
Type NDB Name Cocho Frequency 240 KHZ
Type NDB Name Trevo Frequency 280 KHZ
Type VOR Name Gama Frequency 117300 KHZ



v2.6.1